Time;durP1;ratioP1;P1;durP2;ratioP2;P2;SDS_P1;SDS_P2;PMS_P1;PMS_P2;Temp;Humidity;BMP_temperature;BMP_pressure;BME280_temperature;BME280_humidity;BME280_pressure;Samples;Min_cycle;Max_cycle;Signal;HPM_P1;HPM_P2
2021/08/14 00:00:43;;;;;;;14.45;8.05;;;;;;;;;;5054096;28;20055;-59
2021/08/14 00:03:09;;;;;;;10.43;8.40;;;;;;;;;;5072233;28;20044;-60
2021/08/14 00:05:34;;;;;;;8.88;7.40;;;;;;;;;;5071819;28;20028;-60
2021/08/14 00:07:59;;;;;;;10.23;8.13;;;;;;;;;;5067537;28;20052;-61
2021/08/14 00:10:24;;;;;;;8.48;7.63;;;;;;;;;;5051939;28;20266;-60
2021/08/14 00:12:49;;;;;;;10.70;7.83;;;;;;;;;;5060673;28;20017;-61
2021/08/14 00:15:15;;;;;;;9.37;7.63;;;;;;;;;;5071927;28;20283;-60
2021/08/14 00:17:40;;;;;;;10.90;7.95;;;;;;;;;;5072066;28;20869;-59
2021/08/14 00:20:06;;;;;;;9.15;8.18;;;;;;;;;;5071978;28;20019;-60
2021/08/14 00:22:31;;;;;;;10.10;8.52;;;;;;;;;;5072023;28;20436;-59
2021/08/14 00:24:56;;;;;;;8.35;7.18;;;;;;;;;;5072004;28;20063;-59
2021/08/14 00:27:22;;;;;;;8.85;7.97;;;;;;;;;;5072092;28;20074;-59
2021/08/14 00:29:47;;;;;;;9.73;7.90;;;;;;;;;;5071650;28;20036;-60
2021/08/14 00:32:12;;;;;;;9.02;7.65;;;;;;;;;;5071942;28;20095;-59
2021/08/14 00:34:37;;;;;;;9.70;8.52;;;;;;;;;;5071634;28;20074;-60
2021/08/14 00:37:03;;;;;;;8.63;7.70;;;;;;;;;;5071900;28;20017;-59
2021/08/14 00:39:28;;;;;;;10.75;8.15;;;;;;;;;;5071764;28;20074;-60
2021/08/14 00:41:53;;;;;;;9.23;7.65;;;;;;;;;;5071833;28;20459;-59
2021/08/14 00:44:18;;;;;;;10.27;7.78;;;;;;;;;;5071675;28;20100;-60
2021/08/14 00:46:44;;;;;;;9.88;7.55;;;;;;;;;;5053868;28;20100;-59
2021/08/14 00:49:10;;;;;;;9.43;7.45;;;;;;;;;;5071796;28;20020;-60
2021/08/14 00:51:35;;;;;;;8.98;7.13;;;;;;;;;;5071646;28;20042;-60
2021/08/14 00:54:00;;;;;;;8.95;8.00;;;;;;;;;;5071691;28;20023;-60
2021/08/14 00:56:26;;;;;;;8.07;7.28;;;;;;;;;;5071711;28;20017;-60
2021/08/14 00:58:52;;;;;;;8.43;6.93;;;;;;;;;;5071686;28;20028;-58
2021/08/14 01:01:17;;;;;;;7.88;6.68;;;;;;;;;;5071600;28;20016;-60
2021/08/14 01:03:43;;;;;;;8.27;7.40;;;;;;;;;;5071372;28;20421;-60
2021/08/14 01:06:09;;;;;;;8.88;7.20;;;;;;;;;;5071784;28;20028;-60
2021/08/14 01:08:34;;;;;;;8.80;7.10;;;;;;;;;;5074610;28;20127;-60
2021/08/14 01:10:59;;;;;;;6.10;5.60;;;;;;;;;;5073096;28;20262;-59
2021/08/14 01:13:25;;;;;;;7.90;7.07;;;;;;;;;;5074918;28;20267;-59
2021/08/14 01:15:50;;;;;;;10.98;7.38;;;;;;;;;;5073459;28;20087;-59
2021/08/14 01:18:16;;;;;;;8.25;6.60;;;;;;;;;;5067267;28;20017;-60
2021/08/14 01:20:42;;;;;;;8.80;7.18;;;;;;;;;;5072133;28;20489;-59
2021/08/14 01:23:08;;;;;;;8.20;7.18;;;;;;;;;;5084905;28;20020;-60
2021/08/14 01:25:33;;;;;;;8.38;7.40;;;;;;;;;;5073362;28;20074;-59
2021/08/14 01:27:59;;;;;;;9.82;7.07;;;;;;;;;;5075094;28;20025;-60
2021/08/14 01:30:24;;;;;;;8.13;7.05;;;;;;;;;;5074732;28;20032;-59
2021/08/14 01:32:49;;;;;;;8.75;6.43;;;;;;;;;;5081650;28;20095;-59
2021/08/14 01:35:14;;;;;;;7.95;7.22;;;;;;;;;;5069847;28;20359;-59
2021/08/14 01:37:40;;;;;;;9.50;6.67;;;;;;;;;;5054724;28;20079;-59
2021/08/14 01:40:05;;;;;;;8.27;6.65;;;;;;;;;;5073327;28;20274;-60
2021/08/14 01:42:30;;;;;;;8.20;7.40;;;;;;;;;;5069573;28;20107;-60
2021/08/14 01:44:56;;;;;;;9.65;8.05;;;;;;;;;;5070370;28;20027;-60
2021/08/14 01:47:21;;;;;;;9.00;7.57;;;;;;;;;;5063860;28;20032;-60
2021/08/14 01:49:46;;;;;;;7.45;6.45;;;;;;;;;;5073251;28;20044;-59
2021/08/14 01:52:13;;;;;;;8.15;6.82;;;;;;;;;;5051375;28;20498;-59
2021/08/14 01:54:38;;;;;;;8.25;6.55;;;;;;;;;;5073917;28;20050;-59
2021/08/14 01:57:04;;;;;;;9.23;7.25;;;;;;;;;;5074343;28;20091;-59
2021/08/14 01:59:29;;;;;;;8.95;6.80;;;;;;;;;;5072611;28;20472;-60
2021/08/14 02:01:55;;;;;;;8.65;6.70;;;;;;;;;;5065745;28;20015;-59
2021/08/14 02:04:20;;;;;;;7.03;6.32;;;;;;;;;;5063213;28;20028;-59
2021/08/14 02:06:45;;;;;;;9.00;6.43;;;;;;;;;;5073891;28;20379;-60
2021/08/14 02:09:11;;;;;;;8.48;6.85;;;;;;;;;;5074115;28;20032;-60
2021/08/14 02:11:37;;;;;;;7.22;6.53;;;;;;;;;;5066491;28;20033;-60
2021/08/14 02:14:02;;;;;;;7.57;6.35;;;;;;;;;;5070718;28;20470;-60
2021/08/14 02:16:29;;;;;;;9.70;7.22;;;;;;;;;;5073893;28;20024;-60
2021/08/14 02:18:54;;;;;;;7.97;6.60;;;;;;;;;;5072852;28;20108;-60
2021/08/14 02:21:19;;;;;;;8.27;6.65;;;;;;;;;;5074072;28;20092;-61
2021/08/14 02:23:45;;;;;;;8.82;6.40;;;;;;;;;;5063080;28;20534;-59
2021/08/14 02:26:11;;;;;;;7.35;6.65;;;;;;;;;;5055074;28;20317;-60
2021/08/14 02:28:36;;;;;;;7.35;5.50;;;;;;;;;;5066161;28;20112;-60
2021/08/14 02:31:02;;;;;;;6.97;6.32;;;;;;;;;;5053624;28;20031;-60
2021/08/14 02:33:28;;;;;;;7.43;6.30;;;;;;;;;;5070205;28;20371;-59
2021/08/14 02:35:53;;;;;;;6.68;5.97;;;;;;;;;;5058751;28;20032;-60
2021/08/14 02:38:18;;;;;;;8.70;6.57;;;;;;;;;;5072166;28;20521;-60
2021/08/14 02:40:47;;;;;;;8.65;6.20;;;;;;;;;;5053702;28;20143;-60
2021/08/14 02:43:13;;;;;;;9.02;6.50;;;;;;;;;;5062545;28;20032;-58
2021/08/14 02:45:39;;;;;;;6.85;5.85;;;;;;;;;;5071723;28;20527;-59
2021/08/14 02:48:04;;;;;;;8.55;6.72;;;;;;;;;;5072702;28;20162;-59
2021/08/14 02:50:30;;;;;;;7.20;5.65;;;;;;;;;;5072977;28;20052;-60
2021/08/14 02:52:56;;;;;;;7.13;6.40;;;;;;;;;;5072844;28;20025;-59
2021/08/14 02:55:21;;;;;;;11.18;6.82;;;;;;;;;;5073346;28;20028;-58
2021/08/14 02:57:46;;;;;;;8.88;6.78;;;;;;;;;;5073131;28;20013;-59
2021/08/14 03:00:12;;;;;;;7.43;6.68;;;;;;;;;;5073051;28;20028;-59
2021/08/14 03:02:37;;;;;;;14.00;7.50;;;;;;;;;;5072895;28;20024;-60
2021/08/14 03:05:03;;;;;;;7.38;6.60;;;;;;;;;;5061243;28;20027;-59
2021/08/14 03:07:30;;;;;;;8.07;6.35;;;;;;;;;;5063057;28;20135;-59
2021/08/14 03:09:55;;;;;;;8.95;6.93;;;;;;;;;;5069422;28;20374;-59
2021/08/14 03:12:21;;;;;;;8.55;6.30;;;;;;;;;;5072525;28;20111;-59
2021/08/14 03:14:46;;;;;;;9.18;7.35;;;;;;;;;;5072534;28;20031;-59
2021/08/14 03:17:11;;;;;;;8.47;6.97;;;;;;;;;;5071888;28;20100;-58
2021/08/14 03:19:37;;;;;;;8.23;7.03;;;;;;;;;;5072785;28;20315;-58
2021/08/14 03:22:02;;;;;;;7.78;6.55;;;;;;;;;;5072202;28;20738;-58
2021/08/14 03:24:27;;;;;;;7.85;6.90;;;;;;;;;;5072692;28;20428;-58
2021/08/14 03:26:52;;;;;;;7.50;6.70;;;;;;;;;;5072503;28;20024;-58
2021/08/14 03:29:18;;;;;;;7.57;6.83;;;;;;;;;;5061495;28;20020;-59
2021/08/14 03:31:43;;;;;;;8.20;7.18;;;;;;;;;;5072071;28;20262;-59
2021/08/14 03:34:08;;;;;;;8.00;6.60;;;;;;;;;;5072010;28;20024;-59
2021/08/14 03:36:34;;;;;;;8.13;6.53;;;;;;;;;;5072281;28;20016;-59
2021/08/14 03:38:59;;;;;;;8.13;6.22;;;;;;;;;;5054800;28;20052;-59
2021/08/14 03:41:24;;;;;;;7.57;6.88;;;;;;;;;;5054737;28;20018;-59
2021/08/14 03:43:49;;;;;;;7.82;6.22;;;;;;;;;;5071784;28;20018;-59
2021/08/14 03:46:14;;;;;;;7.60;5.68;;;;;;;;;;5071697;28;20023;-59
2021/08/14 03:48:40;;;;;;;7.28;5.78;;;;;;;;;;5071914;28;20027;-60
2021/08/14 03:51:05;;;;;;;9.07;7.25;;;;;;;;;;5072670;28;20369;-59
2021/08/14 03:53:31;;;;;;;10.55;6.10;;;;;;;;;;5050863;28;20020;-60
2021/08/14 03:55:56;;;;;;;7.22;6.53;;;;;;;;;;5069133;28;20070;-59
2021/08/14 03:58:22;;;;;;;6.70;6.00;;;;;;;;;;5072209;28;20032;-59
2021/08/14 04:00:47;;;;;;;7.07;6.37;;;;;;;;;;5072127;28;20025;-59
2021/08/14 04:03:12;;;;;;;8.33;6.30;;;;;;;;;;5071886;28;20302;-58
2021/08/14 04:05:37;;;;;;;9.20;6.13;;;;;;;;;;5072051;28;20315;-59
2021/08/14 04:08:03;;;;;;;7.77;6.27;;;;;;;;;;5071701;28;20040;-59
2021/08/14 04:10:28;;;;;;;6.22;5.63;;;;;;;;;;5072127;28;20257;-59
2021/08/14 04:12:53;;;;;;;7.78;6.20;;;;;;;;;;5071525;28;20020;-60
2021/08/14 04:15:18;;;;;;;8.75;5.88;;;;;;;;;;5072002;28;20021;-60
2021/08/14 04:17:43;;;;;;;6.93;6.22;;;;;;;;;;5071970;28;20013;-59
2021/08/14 04:20:09;;;;;;;6.17;5.57;;;;;;;;;;5072030;28;20016;-59
2021/08/14 04:22:34;;;;;;;8.88;6.57;;;;;;;;;;5071848;28;20252;-59
2021/08/14 04:24:59;;;;;;;8.93;6.82;;;;;;;;;;5072001;28;20462;-60
2021/08/14 04:27:25;;;;;;;9.48;7.00;;;;;;;;;;5072122;28;20028;-59
2021/08/14 04:29:50;;;;;;;7.30;6.60;;;;;;;;;;5071122;28;20024;-60
2021/08/14 04:32:15;;;;;;;8.32;7.47;;;;;;;;;;5072025;28;20440;-59
2021/08/14 04:34:40;;;;;;;7.90;7.05;;;;;;;;;;5071082;28;20074;-60
2021/08/14 04:37:06;;;;;;;7.93;7.13;;;;;;;;;;5072197;28;20095;-60
2021/08/14 04:39:31;;;;;;;10.55;7.47;;;;;;;;;;5071736;28;20028;-57
2021/08/14 04:41:56;;;;;;;9.98;7.45;;;;;;;;;;5073896;28;20062;-60
2021/08/14 04:44:21;;;;;;;9.98;7.50;;;;;;;;;;5057879;28;20025;-59
2021/08/14 04:46:47;;;;;;;11.90;7.97;;;;;;;;;;5075795;28;20020;-60
2021/08/14 04:49:12;;;;;;;9.02;8.13;;;;;;;;;;5075602;28;20036;-59
2021/08/14 04:51:37;;;;;;;9.93;8.17;;;;;;;;;;5075897;28;20059;-59
2021/08/14 04:54:02;;;;;;;8.90;8.00;;;;;;;;;;5075389;28;20308;-58
2021/08/14 04:56:28;;;;;;;8.70;7.57;;;;;;;;;;5075611;28;20250;-59
2021/08/14 04:58:53;;;;;;;8.97;8.07;;;;;;;;;;5055798;28;20024;-59
2021/08/14 05:01:18;;;;;;;10.27;7.67;;;;;;;;;;5061505;28;20385;-59
2021/08/14 05:03:43;;;;;;;9.57;8.40;;;;;;;;;;5065247;28;20260;-59
2021/08/14 05:06:08;;;;;;;7.78;6.72;;;;;;;;;;5061722;28;20060;-60
2021/08/14 05:08:34;;;;;;;7.80;7.00;;;;;;;;;;5075017;28;20406;-59
2021/08/14 05:10:59;;;;;;;8.15;6.50;;;;;;;;;;5075347;28;20437;-60
2021/08/14 05:13:25;;;;;;;9.40;6.47;;;;;;;;;;5074730;28;20038;-59
2021/08/14 05:15:50;;;;;;;7.97;6.90;;;;;;;;;;5074760;28;20483;-59
2021/08/14 05:18:16;;;;;;;8.18;6.82;;;;;;;;;;5075202;28;20016;-59
2021/08/14 05:20:42;;;;;;;7.22;6.57;;;;;;;;;;5074916;28;20406;-59
2021/08/14 05:23:07;;;;;;;8.93;7.95;;;;;;;;;;5075223;28;20043;-59
2021/08/14 05:25:32;;;;;;;8.30;7.50;;;;;;;;;;5074790;28;20026;-59
2021/08/14 05:27:57;;;;;;;8.60;7.68;;;;;;;;;;5072878;28;20322;-59
2021/08/14 05:30:23;;;;;;;11.00;8.90;;;;;;;;;;5067549;28;20033;-58
2021/08/14 05:32:48;;;;;;;10.25;9.25;;;;;;;;;;5075093;28;20021;-59
2021/08/14 05:35:14;;;;;;;13.75;9.43;;;;;;;;;;5074613;28;20031;-59
2021/08/14 05:37:39;;;;;;;10.27;9.13;;;;;;;;;;5074549;28;20009;-59
2021/08/14 05:40:04;;;;;;;10.63;9.13;;;;;;;;;;5074811;28;20602;-59
2021/08/14 05:42:30;;;;;;;12.38;9.23;;;;;;;;;;5074750;28;20020;-59
2021/08/14 05:44:55;;;;;;;10.00;9.00;;;;;;;;;;5056236;28;20024;-59
2021/08/14 05:47:20;;;;;;;9.85;8.85;;;;;;;;;;5065816;28;20409;-60
2021/08/14 05:49:45;;;;;;;12.07;9.23;;;;;;;;;;5061065;28;20055;-60
2021/08/14 05:52:10;;;;;;;10.45;9.10;;;;;;;;;;5074457;28;20759;-60
2021/08/14 05:54:36;;;;;;;9.40;7.70;;;;;;;;;;5073565;28;20020;-60
2021/08/14 05:57:01;;;;;;;9.98;7.72;;;;;;;;;;5074636;28;20025;-60
2021/08/14 05:59:26;;;;;;;9.07;8.18;;;;;;;;;;5074039;28;20092;-59
2021/08/14 06:01:51;;;;;;;11.43;8.23;;;;;;;;;;5064684;28;20119;-60
2021/08/14 06:04:16;;;;;;;8.77;7.88;;;;;;;;;;5054224;28;20251;-60
2021/08/14 06:06:42;;;;;;;11.00;7.68;;;;;;;;;;5054421;28;20040;-59
2021/08/14 06:09:08;;;;;;;9.18;8.27;;;;;;;;;;5067325;28;20017;-60
2021/08/14 06:11:33;;;;;;;9.67;7.67;;;;;;;;;;5074206;28;20035;-60
2021/08/14 06:13:58;;;;;;;8.13;7.33;;;;;;;;;;5074248;28;20329;-60
2021/08/14 06:16:23;;;;;;;7.77;7.00;;;;;;;;;;5074144;28;20316;-60
2021/08/14 06:18:48;;;;;;;7.63;6.78;;;;;;;;;;5064609;28;20264;-57
2021/08/14 06:21:14;;;;;;;8.48;6.78;;;;;;;;;;5058936;28;20044;-60
2021/08/14 06:23:39;;;;;;;8.32;7.25;;;;;;;;;;5074199;28;20021;-60
2021/08/14 06:26:04;;;;;;;8.13;6.60;;;;;;;;;;5074075;28;20024;-60
2021/08/14 06:28:29;;;;;;;10.07;6.43;;;;;;;;;;5073087;28;20099;-60
2021/08/14 06:30:54;;;;;;;8.00;6.30;;;;;;;;;;5073555;28;20105;-60
2021/08/14 06:33:20;;;;;;;6.80;6.13;;;;;;;;;;5073455;28;20346;-60
2021/08/14 06:35:45;;;;;;;7.57;6.75;;;;;;;;;;5073718;28;20016;-60
2021/08/14 06:38:10;;;;;;;8.15;6.00;;;;;;;;;;5072422;28;20027;-60
2021/08/14 06:40:35;;;;;;;7.53;5.87;;;;;;;;;;5072689;28;20066;-60
2021/08/14 06:43:00;;;;;;;7.93;6.28;;;;;;;;;;5073422;28;20255;-60
2021/08/14 06:45:26;;;;;;;8.57;5.85;;;;;;;;;;5073272;28;20016;-60
2021/08/14 06:47:51;;;;;;;9.70;7.28;;;;;;;;;;5073502;28;20020;-58
2021/08/14 06:50:18;;;;;;;7.10;6.40;;;;;;;;;;5073084;28;20028;-60
2021/08/14 06:52:43;;;;;;;7.78;5.68;;;;;;;;;;5073472;28;20031;-59
2021/08/14 06:55:08;;;;;;;7.80;7.00;;;;;;;;;;5073083;28;20074;-60
2021/08/14 06:57:34;;;;;;;8.68;6.60;;;;;;;;;;5073171;28;20243;-60
2021/08/14 06:59:59;;;;;;;8.98;6.35;;;;;;;;;;5072234;28;20016;-60
2021/08/14 07:02:24;;;;;;;6.03;5.40;;;;;;;;;;5073358;28;20048;-60
2021/08/14 07:04:49;;;;;;;6.50;5.45;;;;;;;;;;5072821;28;20027;-60
2021/08/14 07:07:18;;;;;;;9.25;6.53;;;;;;;;;;5056009;28;20052;-59
2021/08/14 07:09:43;;;;;;;9.70;6.40;;;;;;;;;;5059644;28;20521;-59
2021/08/14 07:12:08;;;;;;;8.02;5.32;;;;;;;;;;5059081;28;20029;-60
2021/08/14 07:14:34;;;;;;;7.22;6.03;;;;;;;;;;5052766;28;20032;-59
2021/08/14 07:16:59;;;;;;;7.90;6.30;;;;;;;;;;5067282;28;20025;-59
2021/08/14 07:19:24;;;;;;;7.73;6.00;;;;;;;;;;5072651;28;20262;-60
2021/08/14 07:21:49;;;;;;;5.53;4.20;;;;;;;;;;5072790;28;20590;-59
2021/08/14 07:24:14;;;;;;;6.03;4.53;;;;;;;;;;5054809;28;20012;-60
2021/08/14 07:26:40;;;;;;;5.97;4.10;;;;;;;;;;5072590;28;20255;-60
2021/08/14 07:29:05;;;;;;;6.40;4.40;;;;;;;;;;5067608;28;20019;-59
2021/08/14 07:31:30;;;;;;;4.90;3.10;;;;;;;;;;5052465;28;20013;-59
2021/08/14 07:33:55;;;;;;;4.97;3.55;;;;;;;;;;5052280;28;20079;-60
2021/08/14 07:36:21;;;;;;;6.85;3.92;;;;;;;;;;5052583;28;20029;-60
2021/08/14 07:38:46;;;;;;;3.80;3.10;;;;;;;;;;5044741;28;20078;-60
2021/08/14 07:41:11;;;;;;;7.03;4.00;;;;;;;;;;5054390;28;20278;-59
2021/08/14 07:43:36;;;;;;;6.00;5.17;;;;;;;;;;5072531;28;20257;-59
2021/08/14 07:46:02;;;;;;;5.30;3.73;;;;;;;;;;5071783;28;20285;-59
2021/08/14 07:48:27;;;;;;;4.47;3.83;;;;;;;;;;5065788;28;20756;-60
2021/08/14 07:50:52;;;;;;;6.10;3.93;;;;;;;;;;5064630;28;20044;-60
2021/08/14 07:53:18;;;;;;;7.00;3.97;;;;;;;;;;5072387;28;20744;-60
2021/08/14 07:55:43;;;;;;;6.13;4.00;;;;;;;;;;5064402;28;20024;-60
2021/08/14 07:58:10;;;;;;;5.07;4.00;;;;;;;;;;5061789;28;20755;-60
2021/08/14 08:00:35;;;;;;;3.90;3.40;;;;;;;;;;5071920;28;20271;-59
2021/08/14 08:03:00;;;;;;;5.10;3.50;;;;;;;;;;5072264;28;20382;-60
2021/08/14 08:05:26;;;;;;;4.23;3.37;;;;;;;;;;5072022;28;20267;-60
2021/08/14 08:07:51;;;;;;;6.10;3.40;;;;;;;;;;5067164;28;20370;-59
2021/08/14 08:10:17;;;;;;;5.85;3.00;;;;;;;;;;5052136;28;20028;-60
2021/08/14 08:12:42;;;;;;;4.00;3.45;;;;;;;;;;5070601;28;20382;-59
2021/08/14 08:15:08;;;;;;;4.88;3.45;;;;;;;;;;5058944;28;20025;-59
2021/08/14 08:17:34;;;;;;;4.90;2.97;;;;;;;;;;5051492;28;20021;-59
2021/08/14 08:20:00;;;;;;;4.13;3.63;;;;;;;;;;5071395;28;20017;-59
2021/08/14 08:22:26;;;;;;;3.90;3.45;;;;;;;;;;5072276;28;20425;-59
2021/08/14 08:24:51;;;;;;;5.03;3.30;;;;;;;;;;5072016;28;20034;-57
2021/08/14 08:27:16;;;;;;;4.50;4.00;;;;;;;;;;5071624;28;20398;-59
2021/08/14 08:29:41;;;;;;;6.25;3.72;;;;;;;;;;5070848;28;20031;-59
2021/08/14 08:32:07;;;;;;;4.43;3.05;;;;;;;;;;5071660;28;20110;-59
2021/08/14 08:34:33;;;;;;;5.97;3.00;;;;;;;;;;5071620;28;20028;-60
2021/08/14 08:36:58;;;;;;;4.03;3.15;;;;;;;;;;5071624;28;20016;-60
2021/08/14 08:39:23;;;;;;;5.32;3.10;;;;;;;;;;5071256;28;20489;-59
2021/08/14 08:41:49;;;;;;;4.28;2.95;;;;;;;;;;5072241;28;20089;-60
2021/08/14 08:44:15;;;;;;;3.95;3.38;;;;;;;;;;5071928;28;20369;-60
2021/08/14 08:46:40;;;;;;;5.67;3.40;;;;;;;;;;5071382;28;20108;-58
2021/08/14 08:49:06;;;;;;;4.35;3.65;;;;;;;;;;5070239;28;20278;-60
2021/08/14 08:51:32;;;;;;;5.00;3.40;;;;;;;;;;5070858;28;20103;-59
2021/08/14 08:53:57;;;;;;;4.82;3.10;;;;;;;;;;5071504;28;20096;-59
2021/08/14 08:56:23;;;;;;;4.57;3.10;;;;;;;;;;5058296;28;20509;-59
2021/08/14 08:58:48;;;;;;;4.27;2.90;;;;;;;;;;5064878;28;20424;-60
2021/08/14 09:01:14;;;;;;;6.05;3.13;;;;;;;;;;5071027;28;20262;-57
2021/08/14 09:03:39;;;;;;;3.92;3.40;;;;;;;;;;5070314;28;20016;-60
2021/08/14 09:06:04;;;;;;;4.60;2.60;;;;;;;;;;5071447;28;20020;-59
2021/08/14 09:08:29;;;;;;;4.85;3.45;;;;;;;;;;5071389;28;20117;-60
2021/08/14 09:11:09;;;;;;;5.37;3.20;;;;;;;;;;5067526;28;20017;-60
2021/08/14 09:13:34;;;;;;;5.40;3.15;;;;;;;;;;5051510;28;20806;-59
2021/08/14 09:16:18;;;;;;;5.18;3.15;;;;;;;;;;5051251;28;20028;-60
2021/08/14 09:18:57;;;;;;;5.05;3.17;;;;;;;;;;5051775;28;20075;-60
2021/08/14 09:21:33;;;;;;;7.43;3.97;;;;;;;;;;5051595;28;20021;-60
2021/08/14 09:24:04;;;;;;;3.17;2.80;;;;;;;;;;5052012;28;20021;-60
2021/08/14 09:26:29;;;;;;;4.95;2.83;;;;;;;;;;5068811;28;20113;-60
2021/08/14 09:29:01;;;;;;;5.55;2.67;;;;;;;;;;5074039;28;20051;-59
2021/08/14 09:31:26;;;;;;;3.33;2.83;;;;;;;;;;5074554;28;20021;-60
2021/08/14 09:33:51;;;;;;;5.40;2.88;;;;;;;;;;5074540;28;20078;-59
2021/08/14 09:36:19;;;;;;;7.40;3.30;;;;;;;;;;5074516;28;20027;-60
2021/08/14 09:38:48;;;;;;;5.05;3.00;;;;;;;;;;5074680;28;20308;-60
2021/08/14 09:41:18;;;;;;;4.68;3.15;;;;;;;;;;5074743;28;20044;-59
2021/08/14 09:43:44;;;;;;;3.10;2.65;;;;;;;;;;5071960;28;20012;-59
2021/08/14 09:46:09;;;;;;;3.00;2.33;;;;;;;;;;5074135;28;20024;-59
2021/08/14 09:48:35;;;;;;;2.42;1.90;;;;;;;;;;5074686;28;20020;-59
2021/08/14 09:51:00;;;;;;;3.95;2.83;;;;;;;;;;5073882;28;20043;-60
2021/08/14 09:53:27;;;;;;;3.90;2.30;;;;;;;;;;5074618;28;20012;-59
2021/08/14 09:56:06;;;;;;;7.57;2.80;;;;;;;;;;5074077;28;20028;-59
2021/08/14 09:58:32;;;;;;;3.83;2.20;;;;;;;;;;5074624;28;20108;-59
2021/08/14 10:00:59;;;;;;;2.95;2.35;;;;;;;;;;5073895;28;20423;-59
2021/08/14 10:03:24;;;;;;;2.60;2.40;;;;;;;;;;5074151;28;20027;-59
2021/08/14 10:05:50;;;;;;;3.15;2.40;;;;;;;;;;5074209;28;20374;-59
2021/08/14 10:08:17;;;;;;;2.20;2.00;;;;;;;;;;5074083;28;20087;-59
2021/08/14 10:10:42;;;;;;;3.85;2.28;;;;;;;;;;5074247;28;20016;-59
2021/08/14 10:13:08;;;;;;;3.58;1.70;;;;;;;;;;5074101;28;20040;-59
2021/08/14 10:15:34;;;;;;;4.20;2.92;;;;;;;;;;5073759;28;20020;-59
2021/08/14 10:17:59;;;;;;;3.00;2.20;;;;;;;;;;5073939;28;20013;-59
2021/08/14 10:20:24;;;;;;;3.97;2.13;;;;;;;;;;5073125;28;20020;-60
2021/08/14 10:22:57;;;;;;;4.10;2.40;;;;;;;;;;5074468;28;20016;-59
2021/08/14 10:25:22;;;;;;;2.85;2.05;;;;;;;;;;5073243;28;20036;-59
2021/08/14 10:27:55;;;;;;;2.33;2.00;;;;;;;;;;5073764;28;20025;-59
2021/08/14 10:30:36;;;;;;;3.03;2.72;;;;;;;;;;5073755;28;20107;-60
2021/08/14 10:33:01;;;;;;;2.85;2.22;;;;;;;;;;5073842;28;20031;-59
2021/08/14 10:35:26;;;;;;;3.17;2.85;;;;;;;;;;5072723;28;20024;-59
2021/08/14 10:37:51;;;;;;;3.33;2.73;;;;;;;;;;5073602;28;20016;-58
2021/08/14 10:40:18;;;;;;;4.32;2.75;;;;;;;;;;5073167;28;20466;-59
2021/08/14 10:42:46;;;;;;;4.07;2.40;;;;;;;;;;5073609;28;20374;-57
2021/08/14 10:45:13;;;;;;;3.40;2.17;;;;;;;;;;5072825;28;20119;-59
2021/08/14 10:47:40;;;;;;;2.88;2.30;;;;;;;;;;5073341;28;20478;-59
2021/08/14 10:50:05;;;;;;;5.28;3.03;;;;;;;;;;5073386;28;20026;-59
2021/08/14 10:52:31;;;;;;;3.63;2.53;;;;;;;;;;5072836;28;20025;-60
2021/08/14 10:54:57;;;;;;;2.92;2.70;;;;;;;;;;5073208;28;20016;-60
2021/08/14 10:57:35;;;;;;;2.60;2.40;;;;;;;;;;5054588;28;20517;-59
2021/08/14 11:00:01;;;;;;;3.03;2.20;;;;;;;;;;5065377;28;20375;-60
2021/08/14 11:02:26;;;;;;;2.73;2.53;;;;;;;;;;5073235;28;20024;-59
2021/08/14 11:04:51;;;;;;;3.53;2.13;;;;;;;;;;5072406;28;20255;-57
2021/08/14 11:07:16;;;;;;;3.10;2.40;;;;;;;;;;5072930;28;20048;-59
2021/08/14 11:09:41;;;;;;;3.30;3.00;;;;;;;;;;5073247;28;20021;-58
2021/08/14 11:12:07;;;;;;;2.73;2.53;;;;;;;;;;5072950;28;20484;-59
2021/08/14 11:14:42;;;;;;;3.73;2.60;;;;;;;;;;5054299;28;20363;-58
2021/08/14 11:17:08;;;;;;;2.58;2.38;;;;;;;;;;5072658;28;20764;-59
2021/08/14 11:19:49;;;;;;;3.00;2.80;;;;;;;;;;5072821;28;20101;-59
2021/08/14 11:22:21;;;;;;;2.80;2.60;;;;;;;;;;5061221;28;20039;-59
2021/08/14 11:24:46;;;;;;;2.80;2.60;;;;;;;;;;5052930;28;20024;-58
2021/08/14 11:27:17;;;;;;;2.75;2.47;;;;;;;;;;5068031;28;20077;-59
2021/08/14 11:29:43;;;;;;;2.55;2.45;;;;;;;;;;5072213;28;20025;-59
2021/08/14 11:32:08;;;;;;;3.33;2.60;;;;;;;;;;5072749;28;20023;-60
2021/08/14 11:34:34;;;;;;;3.43;2.50;;;;;;;;;;5072132;28;20370;-59
2021/08/14 11:36:59;;;;;;;3.72;2.88;;;;;;;;;;5072327;28;20012;-59
2021/08/14 11:39:34;;;;;;;3.87;2.50;;;;;;;;;;5072688;28;20024;-59
2021/08/14 11:41:59;;;;;;;2.63;2.42;;;;;;;;;;5072368;28;20708;-60
2021/08/14 11:44:25;;;;;;;2.90;2.70;;;;;;;;;;5072050;28;20027;-60
2021/08/14 11:47:03;;;;;;;4.32;2.88;;;;;;;;;;5072071;28;20498;-59
2021/08/14 11:49:28;;;;;;;2.38;2.17;;;;;;;;;;5071044;28;20017;-59
2021/08/14 11:52:03;;;;;;;2.97;2.78;;;;;;;;;;5058492;28;20020;-60
2021/08/14 11:54:29;;;;;;;2.70;2.50;;;;;;;;;;5062324;28;20027;-60
2021/08/14 11:57:06;;;;;;;2.65;2.45;;;;;;;;;;5072274;28;20074;-60
2021/08/14 11:59:32;;;;;;;2.92;2.35;;;;;;;;;;5065894;28;20028;-60
2021/08/14 12:01:58;;;;;;;2.97;2.47;;;;;;;;;;5071839;28;20477;-60
2021/08/14 12:04:23;;;;;;;2.03;1.92;;;;;;;;;;5072021;28;20013;-59
2021/08/14 12:06:53;;;;;;;1.90;1.23;;;;;;;;;;5071755;28;20040;-59
2021/08/14 12:09:19;;;;;;;2.28;2.05;;;;;;;;;;5057494;28;20036;-60
2021/08/14 12:11:44;;;;;;;2.60;2.22;;;;;;;;;;5062771;28;20020;-60
2021/08/14 12:14:17;;;;;;;2.70;2.50;;;;;;;;;;5072175;28;20032;-60
2021/08/14 12:16:44;;;;;;;2.92;2.60;;;;;;;;;;5071498;28;20024;-60
2021/08/14 12:19:18;;;;;;;2.38;2.17;;;;;;;;;;5053536;28;20021;-60
2021/08/14 12:21:44;;;;;;;2.05;1.95;;;;;;;;;;5072066;28;20522;-59
2021/08/14 12:24:10;;;;;;;3.03;2.22;;;;;;;;;;5071981;28;20476;-60
2021/08/14 12:26:35;;;;;;;2.38;2.28;;;;;;;;;;5072102;28;20036;-60
2021/08/14 12:29:02;;;;;;;2.47;2.22;;;;;;;;;;5071364;28;20027;-60
2021/08/14 12:31:28;;;;;;;2.45;2.10;;;;;;;;;;5071721;28;20419;-60
2021/08/14 12:33:54;;;;;;;2.40;2.20;;;;;;;;;;5071575;28;20105;-59
2021/08/14 12:36:38;;;;;;;6.43;2.58;;;;;;;;;;5071895;28;20486;-60
2021/08/14 12:39:05;;;;;;;2.60;2.17;;;;;;;;;;5071557;28;20036;-58
2021/08/14 12:41:37;;;;;;;2.20;2.00;;;;;;;;;;5059253;28;20017;-60
2021/08/14 12:44:03;;;;;;;2.13;2.03;;;;;;;;;;5071454;28;20020;-59
2021/08/14 12:46:28;;;;;;;6.03;2.53;;;;;;;;;;5053148;28;20032;-60
2021/08/14 12:49:11;;;;;;;2.67;2.20;;;;;;;;;;5070938;28;20110;-60
2021/08/14 12:51:37;;;;;;;2.10;1.90;;;;;;;;;;5062951;28;20291;-60
2021/08/14 12:54:11;;;;;;;2.27;2.07;;;;;;;;;;5056901;28;20075;-60
2021/08/14 12:56:38;;;;;;;3.00;2.08;;;;;;;;;;5064482;28;20075;-60
2021/08/14 12:59:04;;;;;;;3.53;1.98;;;;;;;;;;5072840;28;20474;-60
2021/08/14 13:01:29;;;;;;;2.15;2.05;;;;;;;;;;5080275;28;20086;-60
2021/08/14 13:03:54;;;;;;;3.53;2.27;;;;;;;;;;5074127;28;20390;-60
2021/08/14 13:06:19;;;;;;;2.30;2.10;;;;;;;;;;5075219;28;20047;-60
2021/08/14 13:08:45;;;;;;;2.87;2.00;;;;;;;;;;5071138;28;20028;-60
2021/08/14 13:11:10;;;;;;;3.23;1.73;;;;;;;;;;5083351;28;20029;-60
2021/08/14 13:13:35;;;;;;;2.00;1.80;;;;;;;;;;5074610;28;20059;-60
2021/08/14 13:16:00;;;;;;;2.40;2.10;;;;;;;;;;5074070;28;20028;-60
2021/08/14 13:18:26;;;;;;;3.47;2.00;;;;;;;;;;5056801;28;20070;-59
2021/08/14 13:20:51;;;;;;;2.53;1.90;;;;;;;;;;5075031;28;20489;-60
2021/08/14 13:23:16;;;;;;;2.53;2.33;;;;;;;;;;5085995;28;20016;-60
2021/08/14 13:25:41;;;;;;;2.22;2.13;;;;;;;;;;5095323;28;20020;-58
2021/08/14 13:28:07;;;;;;;2.03;1.83;;;;;;;;;;5072107;28;20025;-60
2021/08/14 13:30:32;;;;;;;2.57;1.70;;;;;;;;;;5081214;28;20020;-60
2021/08/14 13:32:57;;;;;;;2.08;1.98;;;;;;;;;;5082876;28;20024;-60
2021/08/14 13:35:23;;;;;;;2.87;2.23;;;;;;;;;;5075547;28;20033;-60
2021/08/14 13:37:48;;;;;;;2.42;1.90;;;;;;;;;;5074413;28;20047;-60
2021/08/14 13:40:14;;;;;;;1.93;1.80;;;;;;;;;;5074364;28;20028;-60
2021/08/14 13:42:39;;;;;;;1.85;1.75;;;;;;;;;;5080709;28;20478;-60
2021/08/14 13:45:06;;;;;;;1.80;1.70;;;;;;;;;;5073080;28;20013;-59
2021/08/14 13:47:31;;;;;;;2.00;1.77;;;;;;;;;;5074685;28;20017;-60
2021/08/14 13:49:57;;;;;;;1.73;1.50;;;;;;;;;;5074377;28;20146;-59
2021/08/14 13:52:22;;;;;;;3.20;1.90;;;;;;;;;;5074315;28;20119;-60
2021/08/14 13:54:47;;;;;;;2.38;1.70;;;;;;;;;;5074363;28;20098;-59
2021/08/14 13:57:13;;;;;;;1.60;1.37;;;;;;;;;;5074265;28;20174;-59
2021/08/14 13:59:38;;;;;;;1.80;1.70;;;;;;;;;;5074343;28;20020;-60
2021/08/14 14:02:03;;;;;;;2.10;1.57;;;;;;;;;;5064231;28;20771;-60
2021/08/14 14:04:28;;;;;;;2.03;1.92;;;;;;;;;;5074081;28;20020;-60
2021/08/14 14:06:54;;;;;;;1.23;1.13;;;;;;;;;;5074113;28;20040;-59
2021/08/14 14:09:20;;;;;;;2.47;1.50;;;;;;;;;;5073865;28;20112;-59
2021/08/14 14:11:45;;;;;;;1.48;1.38;;;;;;;;;;5074189;28;20098;-59
2021/08/14 14:14:10;;;;;;;1.83;1.50;;;;;;;;;;5073156;28;20531;-60
2021/08/14 14:16:35;;;;;;;2.50;1.67;;;;;;;;;;5073938;28;20020;-60
2021/08/14 14:19:01;;;;;;;3.60;1.37;;;;;;;;;;5074226;28;20028;-60
2021/08/14 14:21:26;;;;;;;1.33;1.33;;;;;;;;;;5074121;28;20373;-60
2021/08/14 14:23:51;;;;;;;1.50;1.40;;;;;;;;;;5073708;28;20028;-60
2021/08/14 14:26:16;;;;;;;1.63;1.53;;;;;;;;;;5074024;28;20020;-60
2021/08/14 14:28:41;;;;;;;1.10;1.10;;;;;;;;;;5065342;28;20048;-59
2021/08/14 14:31:07;;;;;;;1.43;1.10;;;;;;;;;;5053888;28;20380;-60
2021/08/14 14:33:32;;;;;;;1.70;1.60;;;;;;;;;;5068133;28;20035;-60
2021/08/14 14:35:57;;;;;;;1.53;1.43;;;;;;;;;;5073803;28;20286;-60